Time;durP1;ratioP1;P1;durP2;ratioP2;P2;SDS_P1;SDS_P2;PMS_P1;PMS_P2;Temp;Humidity;BMP_temperature;BMP_pressure;BME280_temperature;BME280_humidity;BME280_pressure;Samples;Min_cycle;Max_cycle;Signal;HPM_P1;HPM_P2
2021/12/06 00:04:51;;;;;;;10.07;5.45;;;12.20;55.60;;;;;;20642793;28;20335;-74
2021/12/06 00:14:52;;;;;;;11.07;5.43;;;12.20;55.50;;;;;;20642784;28;20034;-74
2021/12/06 00:24:54;;;;;;;10.05;5.43;;;12.20;55.50;;;;;;20609949;28;20058;-76
2021/12/06 00:34:54;;;;;;;12.85;6.45;;;12.20;55.50;;;;;;20625345;28;20066;-74
2021/12/06 00:44:55;;;;;;;12.13;5.88;;;12.20;55.60;;;;;;20624639;28;20130;-74
2021/12/06 00:54:55;;;;;;;13.38;6.03;;;12.20;55.60;;;;;;20624234;28;20031;-74
2021/12/06 01:04:56;;;;;;;11.75;5.78;;;12.10;55.50;;;;;;20623853;28;20035;-74
2021/12/06 01:14:57;;;;;;;12.13;6.47;;;12.10;55.50;;;;;;20622847;28;20061;-74
2021/12/06 01:25:03;;;;;;;11.55;6.80;;;12.20;55.70;;;;;;20638034;28;20133;-74
2021/12/06 01:45:23;;;;;;;11.02;5.25;;;12.10;55.60;;;;;;20638765;28;20043;-74
2021/12/06 01:55:26;;;;;;;11.03;6.23;;;12.10;55.60;;;;;;20619619;28;20037;-75
2021/12/06 02:05:26;;;;;;;12.40;6.45;;;12.10;55.60;;;;;;20619175;28;20308;-74
2021/12/06 02:15:43;;;;;;;12.80;6.75;;;12.10;55.60;;;;;;20634691;28;20477;-74
2021/12/06 02:25:45;;;;;;;9.02;5.63;;;12.10;55.60;;;;;;20635633;28;20049;-74
2021/12/06 02:35:46;;;;;;;11.07;6.20;;;12.10;55.60;;;;;;20617316;28;20042;-74
2021/12/06 02:45:47;;;;;;;9.60;5.43;;;12.10;55.60;;;;;;20630540;28;20492;-74
2021/12/06 02:55:57;;;;;;;10.15;5.60;;;12.00;55.60;;;;;;20612505;28;20724;-74
2021/12/06 03:05:59;;;;;;;11.70;5.93;;;12.00;55.60;;;;;;20616833;28;20085;-74
2021/12/06 03:15:59;;;;;;;9.77;5.85;;;12.00;55.60;;;;;;20613272;28;20519;-74
2021/12/06 03:26:01;;;;;;;13.70;7.05;;;12.00;55.60;;;;;;20628618;28;20037;-74
2021/12/06 03:36:03;;;;;;;11.18;5.95;;;12.00;55.60;;;;;;20612996;28;20038;-75
2021/12/06 03:46:04;;;;;;;11.80;5.60;;;12.00;55.60;;;;;;20612968;28;20440;-74
2021/12/06 03:56:05;;;;;;;12.13;5.97;;;12.00;55.60;;;;;;20627239;28;20132;-75
2021/12/06 04:06:06;;;;;;;8.80;4.93;;;12.00;55.60;;;;;;20612106;28;20096;-74
2021/12/06 04:16:07;;;;;;;10.18;5.60;;;12.00;55.60;;;;;;20655812;28;20038;-74
2021/12/06 04:26:11;;;;;;;11.38;6.55;;;11.90;55.60;;;;;;20658341;28;20505;-74
2021/12/06 04:36:14;;;;;;;13.07;6.93;;;12.00;55.70;;;;;;20626178;28;20034;-74
2021/12/06 04:46:15;;;;;;;11.05;5.88;;;12.00;55.70;;;;;;20641326;28;20034;-75
2021/12/06 04:56:15;;;;;;;11.15;5.95;;;11.90;56.30;;;;;;20624360;28;20404;-74
2021/12/06 05:06:40;;;;;;;13.13;6.32;;;11.90;55.70;;;;;;20670640;28;20039;-74
2021/12/06 05:16:40;;;;;;;11.93;6.97;;;12.10;55.50;;;;;;20643545;28;20050;-72
2021/12/06 05:26:42;;;;;;;11.13;5.93;;;12.80;54.00;;;;;;20622781;28;20436;-71
2021/12/06 05:36:46;;;;;;;10.80;6.10;;;13.80;51.80;;;;;;20622390;28;20034;-74
2021/12/06 05:46:46;;;;;;;10.13;5.50;;;14.70;49.70;;;;;;20636579;28;20036;-75
2021/12/06 05:56:47;;;;;;;10.73;6.38;;;15.60;47.60;;;;;;20653402;28;20053;-73
2021/12/06 06:06:49;;;;;;;8.93;5.97;;;16.00;46.40;;;;;;20635259;28;20176;-76
2021/12/06 06:16:52;;;;;;;9.30;5.55;;;16.20;45.70;;;;;;20626091;28;20300;-78
2021/12/06 06:26:52;;;;;;;9.02;5.65;;;16.20;45.30;;;;;;20599945;28;20073;-80
2021/12/06 06:36:53;;;;;;;7.05;4.93;;;15.90;45.50;;;;;;20662273;28;20590;-77
2021/12/06 06:46:54;;;;;;;9.70;5.13;;;15.20;46.60;;;;;;20615095;28;20053;-77
2021/12/06 06:56:54;;;;;;;10.57;5.72;;;14.50;48.00;;;;;;20622511;28;20332;-77
2021/12/06 07:06:55;;;;;;;10.90;5.75;;;13.90;49.20;;;;;;20643536;28;20039;-77
2021/12/06 07:16:56;;;;;;;8.55;5.28;;;13.40;50.20;;;;;;20601548;28;20042;-76
2021/12/06 07:26:56;;;;;;;9.03;5.03;;;13.10;51.10;;;;;;20611859;28;20516;-82
2021/12/06 07:36:57;;;;;;;9.30;5.35;;;12.90;51.70;;;;;;20630249;28;20289;-81
2021/12/06 07:46:59;;;;;;;7.55;5.05;;;12.80;52.20;;;;;;20631355;28;20080;-82
2021/12/06 07:56:59;;;;;;;9.80;5.18;;;12.60;52.50;;;;;;20648331;28;20034;-81
2021/12/06 08:07:00;;;;;;;10.20;5.40;;;12.60;52.80;;;;;;20592444;28;20145;-82
2021/12/06 08:17:02;;;;;;;9.30;4.90;;;12.50;53.00;;;;;;20629726;28;20328;-81
2021/12/06 08:27:03;;;;;;;8.25;5.25;;;12.50;53.00;;;;;;20629883;28;20077;-82
2021/12/06 08:37:04;;;;;;;7.45;4.63;;;12.50;53.10;;;;;;20630065;28;20465;-81
2021/12/06 08:47:04;;;;;;;6.43;4.18;;;12.50;53.20;;;;;;20625044;28;20125;-82
2021/12/06 08:57:08;;;;;;;9.48;4.47;;;12.40;53.30;;;;;;20639549;28;20076;-82
2021/12/06 09:07:12;;;;;;;7.85;4.70;;;12.40;53.40;;;;;;20641526;28;20481;-82
2021/12/06 09:17:13;;;;;;;9.85;4.80;;;12.40;53.40;;;;;;20617615;28;20184;-81
2021/12/06 09:27:13;;;;;;;9.45;5.25;;;12.30;53.40;;;;;;20640940;28;20564;-82
2021/12/06 09:37:16;;;;;;;7.85;4.15;;;12.30;53.50;;;;;;20657138;28;20074;-82
2021/12/06 09:47:16;;;;;;;5.50;3.85;;;12.30;53.60;;;;;;20638509;28;20069;-83
2021/12/06 09:57:17;;;;;;;6.40;3.70;;;12.30;53.70;;;;;;20637511;28;20042;-82
2021/12/06 10:07:18;;;;;;;9.20;4.28;;;12.30;53.70;;;;;;20655658;28;20045;-82
2021/12/06 10:17:19;;;;;;;6.63;4.20;;;12.30;53.70;;;;;;20623132;28;20120;-81
2021/12/06 10:27:19;;;;;;;7.65;3.90;;;12.30;53.60;;;;;;20653633;28;20396;-80
2021/12/06 10:37:31;;;;;;;8.97;4.23;;;12.30;53.60;;;;;;20652275;28;20046;-81
2021/12/06 10:47:32;;;;;;;6.47;3.53;;;12.30;54.20;;;;;;20621011;28;20297;-82
2021/12/06 10:57:46;;;;;;;7.40;3.93;;;12.30;53.50;;;;;;20635704;28;20042;-81
2021/12/06 11:07:47;;;;;;;7.03;4.22;;;12.30;53.60;;;;;;20636293;28;20380;-85
2021/12/06 11:18:00;;;;;;;8.23;3.83;;;12.40;53.40;;;;;;21059173;23;20499;-82
2021/12/06 11:28:00;;;;;;;8.15;4.00;;;13.30;51.80;;;;;;20773443;28;20044;-81
2021/12/06 11:38:03;;;;;;;9.98;4.93;;;13.90;50.30;;;;;;20774997;28;20030;-78
2021/12/06 11:48:11;;;;;;;8.52;4.90;;;13.50;50.50;;;;;;20790396;28;20029;-78
2021/12/06 11:58:43;;;;;;;10.73;5.32;;;12.90;51.40;;;;;;20785229;28;20057;-74
2021/12/06 12:08:43;;;;;;;9.82;5.03;;;12.50;52.50;;;;;;20705906;28;20038;-80
2021/12/06 12:18:45;;;;;;;9.95;5.35;;;12.20;52.90;;;;;;20715137;28;20038;-78
2021/12/06 12:29:00;;;;;;;10.82;5.05;;;12.10;53.30;;;;;;20730865;28;20559;-79
2021/12/06 12:39:02;;;;;;;9.05;4.72;;;12.00;53.60;;;;;;20742893;28;20042;-78
2021/12/06 12:49:33;;;;;;;7.78;5.00;;;12.00;53.90;;;;;;20740870;28;20030;-78
2021/12/06 12:59:36;;;;;;;7.38;4.75;;;12.00;53.90;;;;;;20737593;28;20030;-77
2021/12/06 13:09:37;;;;;;;8.98;4.65;;;12.00;53.90;;;;;;20775465;28;20080;-76
2021/12/06 13:19:55;;;;;;;10.13;4.40;;;12.10;54.00;;;;;;20719680;28;20128;-78
2021/12/06 13:30:11;;;;;;;7.80;3.90;;;12.00;53.80;;;;;;20721520;28;20695;-78
2021/12/06 13:40:16;;;;;;;8.33;3.93;;;12.10;53.80;;;;;;20715299;28;20041;-79
2021/12/06 13:50:18;;;;;;;7.97;4.30;;;12.10;53.80;;;;;;20699841;28;20387;-82
2021/12/06 14:00:24;;;;;;;6.57;4.47;;;12.10;53.80;;;;;;20667038;28;20048;-81
2021/12/06 14:10:26;;;;;;;7.57;4.63;;;12.10;54.50;;;;;;20720718;28;20072;-82
2021/12/06 14:20:27;;;;;;;9.32;5.10;;;12.20;53.70;;;;;;20773293;28;20037;-82
2021/12/06 14:30:27;;;;;;;7.15;4.22;;;12.40;53.10;;;;;;20799448;28;20048;-82
2021/12/06 14:40:28;;;;;;;7.22;4.30;;;12.50;52.80;;;;;;20712122;28;20501;-78
2021/12/06 14:50:37;;;;;;;8.35;4.35;;;12.40;52.90;;;;;;20760931;28;20173;-82
2021/12/06 15:00:43;;;;;;;8.93;5.07;;;12.30;53.00;;;;;;20700555;28;20053;-77
2021/12/06 15:10:45;;;;;;;8.70;4.50;;;12.20;53.20;;;;;;20810749;28;20033;-76
2021/12/06 15:20:46;;;;;;;9.35;5.35;;;12.00;53.40;;;;;;20747799;28;20046;-77
2021/12/06 15:30:51;;;;;;;63.90;9.43;;;12.00;53.40;;;;;;20708659;28;20045;-76
2021/12/06 15:41:00;;;;;;;31.13;7.20;;;11.90;53.80;;;;;;20666394;28;20128;-80
2021/12/06 15:51:15;;;;;;;16.45;5.18;;;12.30;53.80;;;;;;20713631;28;20056;-78
2021/12/06 16:01:16;;;;;;;8.10;3.42;;;13.10;52.40;;;;;;20704059;28;20045;-78
2021/12/06 16:11:21;;;;;;;13.03;3.57;;;14.10;50.20;;;;;;20719607;28;20133;-77
2021/12/06 16:21:28;;;;;;;5.30;2.38;;;15.00;48.40;;;;;;20721377;28;20802;-77
2021/12/06 16:31:30;;;;;;;7.38;3.28;;;15.40;47.20;;;;;;20687178;28;20062;-78
2021/12/06 16:41:31;;;;;;;5.20;2.58;;;15.80;46.10;;;;;;20688031;28;20160;-80
2021/12/06 16:51:34;;;;;;;8.75;2.75;;;15.70;45.70;;;;;;20699365;28;20125;-78
2021/12/06 17:01:35;;;;;;;7.53;2.70;;;15.30;46.00;;;;;;20699841;28;20048;-78
2021/12/06 17:11:38;;;;;;;6.95;3.60;;;14.60;47.20;;;;;;20687666;28;20483;-80
2021/12/06 17:21:39;;;;;;;4.50;2.65;;;14.00;48.40;;;;;;20712609;28;20038;-78
2021/12/06 17:31:44;;;;;;;6.22;3.33;;;13.40;49.40;;;;;;20736038;28;20092;-80
2021/12/06 17:41:45;;;;;;;4.78;3.00;;;13.10;50.40;;;;;;20716215;28;20096;-74
2021/12/06 17:51:47;;;;;;;4.65;2.97;;;12.80;51.20;;;;;;20715357;28;20042;-75
2021/12/06 18:01:56;;;;;;;7.05;3.80;;;12.60;51.70;;;;;;20715116;28;20045;-74
2021/12/06 18:12:00;;;;;;;6.10;3.13;;;12.60;52.10;;;;;;20714485;28;20412;-74
2021/12/06 18:22:01;;;;;;;6.15;3.88;;;12.50;52.20;;;;;;20690602;28;20144;-74
2021/12/06 18:32:02;;;;;;;7.82;3.30;;;12.50;52.30;;;;;;20715197;28;20032;-74
2021/12/06 18:42:05;;;;;;;7.55;3.25;;;12.60;52.30;;;;;;20722295;28;20037;-74
2021/12/06 18:52:06;;;;;;;6.28;3.45;;;12.60;52.20;;;;;;20722753;28;20042;-76
2021/12/06 19:02:06;;;;;;;7.13;4.10;;;12.60;52.10;;;;;;20711027;28;20591;-76
2021/12/06 19:12:07;;;;;;;8.57;3.65;;;12.60;52.10;;;;;;20723437;28;20036;-74
2021/12/06 19:22:08;;;;;;;7.80;3.75;;;12.60;52.10;;;;;;20763145;28;20104;-77
2021/12/06 19:32:10;;;;;;;6.85;3.70;;;12.60;52.00;;;;;;20724206;28;20034;-75
2021/12/06 19:42:12;;;;;;;7.10;3.90;;;12.70;52.10;;;;;;20708158;28;20062;-76
2021/12/06 19:52:12;;;;;;;6.72;3.83;;;12.60;52.00;;;;;;20708608;28;20040;-75
2021/12/06 20:02:14;;;;;;;6.70;4.40;;;12.60;52.00;;;;;;20721731;28;20117;-76
2021/12/06 20:12:14;;;;;;;7.63;4.22;;;12.60;52.00;;;;;;20708479;28;20037;-76
2021/12/06 20:22:15;;;;;;;5.50;3.47;;;12.70;52.10;;;;;;20706309;28;20357;-77
2021/12/06 20:32:16;;;;;;;7.90;3.83;;;12.60;52.10;;;;;;20674041;28;20041;-77
2021/12/06 20:42:17;;;;;;;6.20;3.85;;;12.60;52.10;;;;;;20705251;28;20303;-76
2021/12/06 20:52:17;;;;;;;8.40;4.38;;;12.50;52.10;;;;;;20723579;28;20034;-76
2021/12/06 21:02:18;;;;;;;9.02;4.05;;;12.50;52.10;;;;;;20701162;28;20045;-77
2021/12/06 21:12:45;;;;;;;6.95;4.70;;;12.60;52.10;;;;;;20718537;28;20137;-77
2021/12/06 21:22:39;;;;;;;9.00;4.53;;;12.60;52.10;;;;;;20734916;28;20053;-77
2021/12/06 21:32:40;;;;;;;7.50;4.50;;;12.50;52.10;;;;;;20717444;28;20447;-78
2021/12/06 21:42:40;;;;;;;6.38;4.05;;;12.50;52.10;;;;;;20750928;28;20396;-78
2021/12/06 21:52:41;;;;;;;7.45;4.20;;;12.50;52.20;;;;;;20732621;28;20555;-78
2021/12/06 22:02:41;;;;;;;8.65;4.05;;;12.50;52.20;;;;;;20747698;28;20476;-78
2021/12/06 22:12:42;;;;;;;6.93;4.60;;;12.50;52.20;;;;;;20730590;28;20041;-78
2021/12/06 22:22:48;;;;;;;8.70;3.85;;;12.50;52.30;;;;;;20729362;28;20313;-79
2021/12/06 22:32:52;;;;;;;7.97;3.83;;;12.40;52.20;;;;;;20745190;28;20369;-78
2021/12/06 22:42:52;;;;;;;7.18;3.70;;;12.40;52.20;;;;;;20712492;28;20466;-78
2021/12/06 22:52:53;;;;;;;6.65;3.88;;;12.50;52.30;;;;;;20727498;28;20073;-78
2021/12/06 23:02:54;;;;;;;6.47;4.07;;;12.40;52.30;;;;;;20726943;28;20034;-78
2021/12/06 23:12:56;;;;;;;6.10;4.15;;;12.40;52.30;;;;;;20726137;28;20038;-78
2021/12/06 23:22:57;;;;;;;6.88;3.85;;;12.40;52.30;;;;;;20725025;28;20085;-78
2021/12/06 23:32:59;;;;;;;5.35;3.67;;;12.40;52.40;;;;;;20725453;28;20533;-78
2021/12/06 23:53:18;;;;;;;8.55;4.53;;;12.30;52.40;;;;;;20713068;28;20040;-78
